Orbital elements of COSMOS 1275 DEB
| Launched | 3 June 1981 |
| Flight ended | – |
| Launch site | Plesetsk Missile and Space Complex, Russia |
| Owner | Commonwealth of Independent States (former USSR) |
| NORAD ID | 12649 |
| Date fetched |
Epoch osculation |
Inc. [°] |
Ecc. | RA asc node [hr] |
Arg Peri. [°] |
Mean anom [°] |
Mean motion [rev/day] |
Abs. mag |
| Date fetched |
Epoch osculation |
Inc. [°] |
Ecc. | RA asc node [hr] |
Arg Peri. [°] |
Mean anom [°] |
Mean motion [rev/day] |
Abs. mag |
| 2026 May 05 17:57 | 2026 May 05 13:35:57 | 82.9185 | 0.00471 | 15.0588 | 267.9572 | 107.5965 | 13.81415 | – |
| 2026 May 04 17:57 | 2026 Apr 30 06:54:35 | 82.9180 | 0.00469 | 15.3232 | 283.3954 | 107.5965 | 13.81415 | – |
| 2026 May 03 17:57 | 2026 Apr 30 06:54:35 | 82.9180 | 0.00469 | 15.3232 | 283.3954 | 107.5965 | 13.81415 | – |
| 2026 May 02 17:57 | 2026 Apr 30 06:54:35 | 82.9180 | 0.00469 | 15.3232 | 283.3954 | 107.5965 | 13.81415 | – |
| 2026 May 01 17:56 | 2026 Apr 30 06:54:35 | 82.9180 | 0.00469 | 15.3232 | 283.3954 | 107.5965 | 13.81415 | – |
| 2026 Apr 30 17:56 | 2026 Apr 30 06:54:35 | 82.9180 | 0.00469 | 15.3232 | 283.3954 | 107.5965 | 13.81415 | – |
| 2026 Apr 29 17:57 | 2026 Apr 24 08:09:06 | 82.9177 | 0.00469 | 15.6212 | 300.8840 | 107.5965 | 13.81415 | – |
| 2026 Apr 28 17:56 | 2026 Apr 24 08:09:06 | 82.9177 | 0.00469 | 15.6212 | 300.8840 | 107.5965 | 13.81415 | – |
| 2026 Apr 27 17:58 | 2026 Apr 24 08:09:06 | 82.9177 | 0.00469 | 15.6212 | 300.8840 | 107.5965 | 13.81415 | – |
| 2026 Apr 26 17:58 | 2026 Apr 24 08:09:06 | 82.9177 | 0.00469 | 15.6212 | 300.8840 | 107.5965 | 13.81415 | – |
| 2026 Apr 25 17:58 | 2026 Apr 24 08:09:06 | 82.9177 | 0.00469 | 15.6212 | 300.8840 | 107.5965 | 13.81415 | – |
| 2026 Apr 24 17:59 | 2026 Apr 24 08:09:06 | 82.9177 | 0.00469 | 15.6212 | 300.8840 | 107.5965 | 13.81415 | – |
| 2026 Apr 23 17:57 | 2026 Apr 19 08:16:27 | 82.9170 | 0.00469 | 15.8714 | 315.6361 | 107.5965 | 13.81415 | – |
| 2026 Apr 22 17:57 | 2026 Apr 19 08:16:27 | 82.9170 | 0.00469 | 15.8714 | 315.6361 | 107.5965 | 13.81415 | – |
| 2026 Apr 21 17:57 | 2026 Apr 19 08:16:27 | 82.9170 | 0.00469 | 15.8714 | 315.6361 | 107.5965 | 13.81415 | – |
| 2026 Apr 20 17:57 | 2026 Apr 19 08:16:27 | 82.9170 | 0.00469 | 15.8714 | 315.6361 | 107.5965 | 13.81415 | – |
| 2026 Apr 19 17:58 | 2026 Apr 19 08:16:27 | 82.9170 | 0.00469 | 15.8714 | 315.6361 | 107.5965 | 13.81415 | – |
| 2026 Apr 18 17:56 | 2026 Apr 13 03:28:53 | 82.9163 | 0.00471 | 16.1821 | 333.9272 | 107.5965 | 13.81415 | – |
| 2026 Apr 16 17:57 | 2026 Apr 13 03:28:53 | 82.9163 | 0.00471 | 16.1821 | 333.9272 | 107.5965 | 13.81415 | – |
| 2026 Apr 14 17:57 | 2026 Apr 13 03:28:53 | 82.9163 | 0.00471 | 16.1821 | 333.9272 | 107.5965 | 13.81415 | – |
| 2026 Apr 13 17:57 | 2026 Apr 13 03:28:53 | 82.9163 | 0.00471 | 16.1821 | 333.9272 | 107.5965 | 13.81415 | – |
| 2026 Apr 12 17:57 | 2026 Apr 08 11:41:53 | 82.9158 | 0.00474 | 16.4155 | 347.5960 | 107.5965 | 13.81415 | – |
| 2026 Apr 11 17:57 | 2026 Apr 08 11:41:53 | 82.9158 | 0.00474 | 16.4155 | 347.5960 | 107.5965 | 13.81415 | – |
| 2026 Apr 10 17:58 | 2026 Apr 08 11:41:53 | 82.9158 | 0.00474 | 16.4155 | 347.5960 | 107.5965 | 13.81415 | – |
| 2026 Apr 09 18:01 | 2026 Apr 08 11:41:53 | 82.9158 | 0.00474 | 16.4155 | 347.5960 | 107.5965 | 13.81415 | – |
| 2026 Apr 08 17:57 | 2026 Apr 08 11:41:53 | 82.9158 | 0.00474 | 16.4155 | 347.5960 | 107.5965 | 13.81415 | – |